sensor_id;sensor_type;location;lat;lon;timestamp;P1;durP1;ratioP1;P2;durP2;ratioP2
13580;SDS011;6861;46.170;7.222;2023-03-12T00:00:24;3.45;;;2.50;;
13580;SDS011;6861;46.170;7.222;2023-03-12T00:02:53;3.08;;;2.60;;
13580;SDS011;6861;46.170;7.222;2023-03-12T00:05:22;2.83;;;2.20;;
13580;SDS011;6861;46.170;7.222;2023-03-12T00:07:51;2.03;;;1.85;;
13580;SDS011;6861;46.170;7.222;2023-03-12T00:10:20;1.92;;;1.50;;
13580;SDS011;6861;46.170;7.222;2023-03-12T00:12:48;2.05;;;1.85;;
13580;SDS011;6861;46.170;7.222;2023-03-12T00:15:16;3.10;;;2.65;;
13580;SDS011;6861;46.170;7.222;2023-03-12T00:17:45;2.65;;;2.42;;
13580;SDS011;6861;46.170;7.222;2023-03-12T00:20:13;2.60;;;2.40;;
13580;SDS011;6861;46.170;7.222;2023-03-12T00:22:41;2.50;;;2.30;;
13580;SDS011;6861;46.170;7.222;2023-03-12T00:25:10;2.80;;;2.60;;
13580;SDS011;6861;46.170;7.222;2023-03-12T00:27:42;3.03;;;2.72;;
13580;SDS011;6861;46.170;7.222;2023-03-12T00:30:10;2.13;;;1.92;;
13580;SDS011;6861;46.170;7.222;2023-03-12T00:32:39;2.78;;;2.47;;
13580;SDS011;6861;46.170;7.222;2023-03-12T00:35:08;2.75;;;2.42;;
13580;SDS011;6861;46.170;7.222;2023-03-12T00:37:36;3.10;;;2.80;;
13580;SDS011;6861;46.170;7.222;2023-03-12T00:40:05;4.13;;;2.67;;
13580;SDS011;6861;46.170;7.222;2023-03-12T00:42:34;2.65;;;2.45;;
13580;SDS011;6861;46.170;7.222;2023-03-12T00:45:04;2.83;;;2.50;;
13580;SDS011;6861;46.170;7.222;2023-03-12T00:47:33;3.05;;;2.75;;
13580;SDS011;6861;46.170;7.222;2023-03-12T00:50:01;3.00;;;2.70;;
13580;SDS011;6861;46.170;7.222;2023-03-12T00:52:30;2.92;;;2.63;;
13580;SDS011;6861;46.170;7.222;2023-03-12T00:54:58;3.25;;;2.95;;
13580;SDS011;6861;46.170;7.222;2023-03-12T00:57:26;2.63;;;2.42;;
13580;SDS011;6861;46.170;7.222;2023-03-12T00:59:54;3.00;;;2.70;;
13580;SDS011;6861;46.170;7.222;2023-03-12T01:02:23;1.98;;;1.60;;
13580;SDS011;6861;46.170;7.222;2023-03-12T01:04:51;2.70;;;2.30;;
13580;SDS011;6861;46.170;7.222;2023-03-12T01:07:19;2.80;;;2.17;;
13580;SDS011;6861;46.170;7.222;2023-03-12T01:09:47;2.72;;;2.10;;
13580;SDS011;6861;46.170;7.222;2023-03-12T01:12:15;2.67;;;2.25;;
13580;SDS011;6861;46.170;7.222;2023-03-12T01:14:43;1.98;;;1.80;;
13580;SDS011;6861;46.170;7.222;2023-03-12T01:17:11;2.13;;;1.90;;
13580;SDS011;6861;46.170;7.222;2023-03-12T01:19:41;2.40;;;2.20;;
13580;SDS011;6861;46.170;7.222;2023-03-12T01:22:09;2.58;;;2.38;;
13580;SDS011;6861;46.170;7.222;2023-03-12T01:24:37;3.08;;;2.47;;
13580;SDS011;6861;46.170;7.222;2023-03-12T01:27:05;2.97;;;2.22;;
13580;SDS011;6861;46.170;7.222;2023-03-12T01:29:33;2.55;;;1.95;;
13580;SDS011;6861;46.170;7.222;2023-03-12T01:32:01;2.60;;;2.25;;
13580;SDS011;6861;46.170;7.222;2023-03-12T01:34:29;3.05;;;2.75;;
13580;SDS011;6861;46.170;7.222;2023-03-12T01:37:00;3.42;;;3.13;;
13580;SDS011;6861;46.170;7.222;2023-03-12T01:39:28;3.38;;;2.60;;
13580;SDS011;6861;46.170;7.222;2023-03-12T01:41:56;3.47;;;3.17;;
13580;SDS011;6861;46.170;7.222;2023-03-12T01:44:24;3.17;;;2.88;;
13580;SDS011;6861;46.170;7.222;2023-03-12T01:46:52;1.88;;;1.77;;
13580;SDS011;6861;46.170;7.222;2023-03-12T01:49:22;3.42;;;3.13;;
13580;SDS011;6861;46.170;7.222;2023-03-12T01:51:53;3.38;;;3.08;;
13580;SDS011;6861;46.170;7.222;2023-03-12T01:54:28;4.25;;;3.50;;
13580;SDS011;6861;46.170;7.222;2023-03-12T01:57:00;4.20;;;3.80;;
13580;SDS011;6861;46.170;7.222;2023-03-12T01:59:32;3.60;;;3.30;;
13580;SDS011;6861;46.170;7.222;2023-03-12T02:02:03;4.30;;;3.70;;
13580;SDS011;6861;46.170;7.222;2023-03-12T02:04:33;4.57;;;3.95;;
13580;SDS011;6861;46.170;7.222;2023-03-12T02:07:05;4.40;;;4.00;;
13580;SDS011;6861;46.170;7.222;2023-03-12T02:09:40;4.40;;;4.00;;
13580;SDS011;6861;46.170;7.222;2023-03-12T02:12:10;4.50;;;4.10;;
13580;SDS011;6861;46.170;7.222;2023-03-12T02:14:38;5.00;;;4.22;;
13580;SDS011;6861;46.170;7.222;2023-03-12T02:17:06;4.35;;;3.72;;
13580;SDS011;6861;46.170;7.222;2023-03-12T02:19:37;4.18;;;3.65;;
13580;SDS011;6861;46.170;7.222;2023-03-12T02:22:09;4.03;;;3.63;;
13580;SDS011;6861;46.170;7.222;2023-03-12T02:24:41;3.80;;;3.35;;
13580;SDS011;6861;46.170;7.222;2023-03-12T02:27:15;3.95;;;3.55;;
13580;SDS011;6861;46.170;7.222;2023-03-12T02:29:44;3.25;;;2.95;;
13580;SDS011;6861;46.170;7.222;2023-03-12T02:32:14;4.10;;;3.30;;
13580;SDS011;6861;46.170;7.222;2023-03-12T02:34:46;3.90;;;3.47;;
13580;SDS011;6861;46.170;7.222;2023-03-12T02:37:16;3.38;;;3.05;;
13580;SDS011;6861;46.170;7.222;2023-03-12T02:39:45;4.07;;;3.17;;
13580;SDS011;6861;46.170;7.222;2023-03-12T02:42:21;3.20;;;2.90;;
13580;SDS011;6861;46.170;7.222;2023-03-12T02:44:51;3.38;;;3.08;;
13580;SDS011;6861;46.170;7.222;2023-03-12T02:47:19;3.15;;;2.80;;
13580;SDS011;6861;46.170;7.222;2023-03-12T02:49:47;3.47;;;3.17;;
13580;SDS011;6861;46.170;7.222;2023-03-12T02:52:15;3.55;;;3.03;;
13580;SDS011;6861;46.170;7.222;2023-03-12T02:54:43;3.33;;;3.03;;
13580;SDS011;6861;46.170;7.222;2023-03-12T02:57:11;3.67;;;3.35;;
13580;SDS011;6861;46.170;7.222;2023-03-12T02:59:40;3.83;;;3.22;;
13580;SDS011;6861;46.170;7.222;2023-03-12T03:02:08;4.88;;;3.95;;
13580;SDS011;6861;46.170;7.222;2023-03-12T03:04:38;5.65;;;4.32;;
13580;SDS011;6861;46.170;7.222;2023-03-12T03:07:06;4.50;;;4.10;;
13580;SDS011;6861;46.170;7.222;2023-03-12T03:09:34;6.05;;;4.03;;
13580;SDS011;6861;46.170;7.222;2023-03-12T03:12:02;3.95;;;3.55;;
13580;SDS011;6861;46.170;7.222;2023-03-12T03:14:30;4.18;;;3.75;;
13580;SDS011;6861;46.170;7.222;2023-03-12T03:17:00;6.30;;;4.32;;
13580;SDS011;6861;46.170;7.222;2023-03-12T03:19:28;4.25;;;3.85;;
13580;SDS011;6861;46.170;7.222;2023-03-12T03:21:56;4.20;;;3.80;;
13580;SDS011;6861;46.170;7.222;2023-03-12T03:24:24;4.78;;;3.50;;
13580;SDS011;6861;46.170;7.222;2023-03-12T03:26:52;4.32;;;3.22;;
13580;SDS011;6861;46.170;7.222;2023-03-12T03:29:21;3.70;;;3.35;;
13580;SDS011;6861;46.170;7.222;2023-03-12T03:31:49;3.70;;;3.40;;
13580;SDS011;6861;46.170;7.222;2023-03-12T03:34:18;3.60;;;3.22;;
13580;SDS011;6861;46.170;7.222;2023-03-12T03:36:46;3.75;;;3.38;;
13580;SDS011;6861;46.170;7.222;2023-03-12T03:39:14;5.18;;;3.20;;
13580;SDS011;6861;46.170;7.222;2023-03-12T03:41:42;3.83;;;3.47;;
13580;SDS011;6861;46.170;7.222;2023-03-12T03:44:11;3.47;;;3.13;;
13580;SDS011;6861;46.170;7.222;2023-03-12T03:46:40;4.07;;;3.35;;
13580;SDS011;6861;46.170;7.222;2023-03-12T03:49:08;2.88;;;2.60;;
13580;SDS011;6861;46.170;7.222;2023-03-12T03:51:37;3.15;;;2.88;;
13580;SDS011;6861;46.170;7.222;2023-03-12T03:54:07;3.17;;;2.88;;
13580;SDS011;6861;46.170;7.222;2023-03-12T03:56:35;3.45;;;3.15;;
13580;SDS011;6861;46.170;7.222;2023-03-12T03:59:03;5.63;;;3.17;;
13580;SDS011;6861;46.170;7.222;2023-03-12T04:01:31;3.25;;;2.53;;
13580;SDS011;6861;46.170;7.222;2023-03-12T04:03:59;3.47;;;2.78;;
13580;SDS011;6861;46.170;7.222;2023-03-12T04:06:27;3.45;;;3.00;;
13580;SDS011;6861;46.170;7.222;2023-03-12T04:08:57;3.97;;;3.00;;
13580;SDS011;6861;46.170;7.222;2023-03-12T04:11:26;5.13;;;3.22;;
13580;SDS011;6861;46.170;7.222;2023-03-12T04:13:54;6.00;;;3.25;;
13580;SDS011;6861;46.170;7.222;2023-03-12T04:16:23;4.13;;;3.47;;
13580;SDS011;6861;46.170;7.222;2023-03-12T04:18:52;4.18;;;3.20;;
13580;SDS011;6861;46.170;7.222;2023-03-12T04:21:20;4.47;;;3.40;;
13580;SDS011;6861;46.170;7.222;2023-03-12T04:23:48;3.78;;;3.40;;
13580;SDS011;6861;46.170;7.222;2023-03-12T04:26:17;4.13;;;3.70;;
13580;SDS011;6861;46.170;7.222;2023-03-12T04:28:46;4.00;;;3.50;;
13580;SDS011;6861;46.170;7.222;2023-03-12T04:31:14;4.03;;;3.38;;
13580;SDS011;6861;46.170;7.222;2023-03-12T04:33:42;4.20;;;3.80;;
13580;SDS011;6861;46.170;7.222;2023-03-12T04:36:10;4.10;;;3.70;;
13580;SDS011;6861;46.170;7.222;2023-03-12T04:38:39;4.50;;;3.83;;
13580;SDS011;6861;46.170;7.222;2023-03-12T04:41:08;3.75;;;3.35;;
13580;SDS011;6861;46.170;7.222;2023-03-12T04:43:40;3.08;;;2.72;;
13580;SDS011;6861;46.170;7.222;2023-03-12T04:46:09;3.50;;;3.20;;
13580;SDS011;6861;46.170;7.222;2023-03-12T04:48:37;3.80;;;3.35;;
13580;SDS011;6861;46.170;7.222;2023-03-12T04:51:05;4.10;;;3.03;;
13580;SDS011;6861;46.170;7.222;2023-03-12T04:53:33;3.60;;;3.00;;
13580;SDS011;6861;46.170;7.222;2023-03-12T04:56:01;3.63;;;2.60;;
13580;SDS011;6861;46.170;7.222;2023-03-12T04:58:29;2.65;;;2.45;;
13580;SDS011;6861;46.170;7.222;2023-03-12T05:00:59;3.00;;;2.50;;
13580;SDS011;6861;46.170;7.222;2023-03-12T05:03:27;2.60;;;2.08;;
13580;SDS011;6861;46.170;7.222;2023-03-12T05:05:55;3.00;;;2.30;;
13580;SDS011;6861;46.170;7.222;2023-03-12T05:08:24;2.08;;;1.70;;
13580;SDS011;6861;46.170;7.222;2023-03-12T05:10:52;1.95;;;1.40;;
13580;SDS011;6861;46.170;7.222;2023-03-12T05:13:21;2.25;;;1.40;;
13580;SDS011;6861;46.170;7.222;2023-03-12T05:15:50;1.83;;;1.63;;
13580;SDS011;6861;46.170;7.222;2023-03-12T05:18:20;3.40;;;2.97;;
13580;SDS011;6861;46.170;7.222;2023-03-12T05:20:56;3.50;;;3.20;;
13580;SDS011;6861;46.170;7.222;2023-03-12T05:23:25;4.60;;;3.85;;
13580;SDS011;6861;46.170;7.222;2023-03-12T05:25:53;4.45;;;3.47;;
13580;SDS011;6861;46.170;7.222;2023-03-12T05:28:22;4.13;;;3.63;;
13580;SDS011;6861;46.170;7.222;2023-03-12T05:30:53;3.50;;;3.20;;
13580;SDS011;6861;46.170;7.222;2023-03-12T05:33:23;4.40;;;3.20;;
13580;SDS011;6861;46.170;7.222;2023-03-12T05:35:52;4.55;;;3.90;;
13580;SDS011;6861;46.170;7.222;2023-03-12T05:38:20;3.42;;;3.13;;
13580;SDS011;6861;46.170;7.222;2023-03-12T05:40:51;5.90;;;3.17;;
13580;SDS011;6861;46.170;7.222;2023-03-12T05:43:21;3.33;;;2.83;;
13580;SDS011;6861;46.170;7.222;2023-03-12T05:45:49;3.85;;;3.25;;
13580;SDS011;6861;46.170;7.222;2023-03-12T05:48:17;4.68;;;3.50;;
13580;SDS011;6861;46.170;7.222;2023-03-12T05:50:47;3.63;;;2.95;;
13580;SDS011;6861;46.170;7.222;2023-03-12T05:53:15;4.38;;;2.85;;
13580;SDS011;6861;46.170;7.222;2023-03-12T05:55:44;3.20;;;2.90;;
13580;SDS011;6861;46.170;7.222;2023-03-12T05:58:12;3.58;;;3.20;;
13580;SDS011;6861;46.170;7.222;2023-03-12T06:00:40;3.50;;;3.20;;
13580;SDS011;6861;46.170;7.222;2023-03-12T06:03:09;2.95;;;2.65;;
13580;SDS011;6861;46.170;7.222;2023-03-12T06:05:38;3.03;;;2.70;;
13580;SDS011;6861;46.170;7.222;2023-03-12T06:08:08;3.50;;;3.20;;
13580;SDS011;6861;46.170;7.222;2023-03-12T06:10:36;3.65;;;3.25;;
13580;SDS011;6861;46.170;7.222;2023-03-12T06:13:05;3.97;;;3.17;;
13580;SDS011;6861;46.170;7.222;2023-03-12T06:15:34;4.30;;;3.40;;
13580;SDS011;6861;46.170;7.222;2023-03-12T06:18:02;4.55;;;3.72;;
13580;SDS011;6861;46.170;7.222;2023-03-12T06:20:30;4.03;;;3.47;;
13580;SDS011;6861;46.170;7.222;2023-03-12T06:22:58;4.50;;;3.83;;
13580;SDS011;6861;46.170;7.222;2023-03-12T06:25:27;6.40;;;4.18;;
13580;SDS011;6861;46.170;7.222;2023-03-12T06:27:55;4.60;;;4.20;;
13580;SDS011;6861;46.170;7.222;2023-03-12T06:30:23;4.90;;;4.40;;
13580;SDS011;6861;46.170;7.222;2023-03-12T06:32:52;4.90;;;4.40;;
13580;SDS011;6861;46.170;7.222;2023-03-12T06:35:20;6.00;;;4.72;;
13580;SDS011;6861;46.170;7.222;2023-03-12T06:37:48;5.85;;;4.20;;
13580;SDS011;6861;46.170;7.222;2023-03-12T06:40:17;5.45;;;4.75;;
13580;SDS011;6861;46.170;7.222;2023-03-12T06:42:46;5.53;;;4.55;;
13580;SDS011;6861;46.170;7.222;2023-03-12T06:45:14;5.70;;;5.10;;
13580;SDS011;6861;46.170;7.222;2023-03-12T06:47:42;5.15;;;4.25;;
13580;SDS011;6861;46.170;7.222;2023-03-12T06:50:10;5.57;;;5.03;;
13580;SDS011;6861;46.170;7.222;2023-03-12T06:52:38;5.45;;;4.68;;
13580;SDS011;6861;46.170;7.222;2023-03-12T06:55:07;5.95;;;4.95;;
13580;SDS011;6861;46.170;7.222;2023-03-12T06:57:35;5.25;;;4.57;;
13580;SDS011;6861;46.170;7.222;2023-03-12T07:00:05;6.72;;;4.95;;
13580;SDS011;6861;46.170;7.222;2023-03-12T07:02:34;5.88;;;5.28;;
13580;SDS011;6861;46.170;7.222;2023-03-12T07:05:02;5.45;;;4.65;;
13580;SDS011;6861;46.170;7.222;2023-03-12T07:07:31;4.93;;;4.40;;
13580;SDS011;6861;46.170;7.222;2023-03-12T07:09:59;5.95;;;4.15;;
13580;SDS011;6861;46.170;7.222;2023-03-12T07:12:27;4.75;;;4.25;;
13580;SDS011;6861;46.170;7.222;2023-03-12T07:14:55;5.70;;;4.65;;
13580;SDS011;6861;46.170;7.222;2023-03-12T07:17:25;4.30;;;3.67;;
13580;SDS011;6861;46.170;7.222;2023-03-12T07:19:53;5.38;;;4.20;;
13580;SDS011;6861;46.170;7.222;2023-03-12T07:22:21;4.85;;;4.20;;
13580;SDS011;6861;46.170;7.222;2023-03-12T07:24:49;4.43;;;3.95;;
13580;SDS011;6861;46.170;7.222;2023-03-12T07:27:17;5.60;;;4.13;;
13580;SDS011;6861;46.170;7.222;2023-03-12T07:29:46;4.32;;;3.92;;
13580;SDS011;6861;46.170;7.222;2023-03-12T07:32:14;5.57;;;4.43;;
13580;SDS011;6861;46.170;7.222;2023-03-12T07:34:44;4.05;;;3.38;;
13580;SDS011;6861;46.170;7.222;2023-03-12T07:37:12;4.53;;;4.13;;
13580;SDS011;6861;46.170;7.222;2023-03-12T07:39:40;4.38;;;3.97;;
13580;SDS011;6861;46.170;7.222;2023-03-12T07:42:09;5.22;;;3.83;;
13580;SDS011;6861;46.170;7.222;2023-03-12T07:44:38;4.18;;;3.60;;
13580;SDS011;6861;46.170;7.222;2023-03-12T07:47:06;4.88;;;3.92;;
13580;SDS011;6861;46.170;7.222;2023-03-12T07:49:50;4.25;;;3.65;;
13580;SDS011;6861;46.170;7.222;2023-03-12T07:52:19;3.75;;;3.15;;
13580;SDS011;6861;46.170;7.222;2023-03-12T07:54:49;3.72;;;3.13;;
13580;SDS011;6861;46.170;7.222;2023-03-12T07:57:18;3.25;;;2.95;;
13580;SDS011;6861;46.170;7.222;2023-03-12T07:59:46;4.93;;;4.43;;
13580;SDS011;6861;46.170;7.222;2023-03-12T08:02:15;2.40;;;2.20;;
13580;SDS011;6861;46.170;7.222;2023-03-12T08:04:43;3.22;;;2.40;;
13580;SDS011;6861;46.170;7.222;2023-03-12T08:07:13;3.40;;;3.10;;
13580;SDS011;6861;46.170;7.222;2023-03-12T08:09:42;4.05;;;3.65;;
13580;SDS011;6861;46.170;7.222;2023-03-12T08:12:10;4.47;;;4.05;;
13580;SDS011;6861;46.170;7.222;2023-03-12T08:14:38;4.30;;;3.90;;
13580;SDS011;6861;46.170;7.222;2023-03-12T08:17:06;5.30;;;4.07;;
13580;SDS011;6861;46.170;7.222;2023-03-12T08:19:34;4.30;;;3.90;;
13580;SDS011;6861;46.170;7.222;2023-03-12T08:22:02;9.15;;;4.22;;
13580;SDS011;6861;46.170;7.222;2023-03-12T08:24:32;4.30;;;3.90;;
13580;SDS011;6861;46.170;7.222;2023-03-12T08:27:00;4.40;;;4.00;;
13580;SDS011;6861;46.170;7.222;2023-03-12T08:29:28;4.40;;;3.38;;
13580;SDS011;6861;46.170;7.222;2023-03-12T08:31:58;3.53;;;3.22;;
13580;SDS011;6861;46.170;7.222;2023-03-12T08:34:31;3.20;;;2.90;;
13580;SDS011;6861;46.170;7.222;2023-03-12T08:36:59;2.97;;;2.67;;
13580;SDS011;6861;46.170;7.222;2023-03-12T08:39:28;3.17;;;2.88;;
13580;SDS011;6861;46.170;7.222;2023-03-12T08:41:58;3.03;;;2.75;;
13580;SDS011;6861;46.170;7.222;2023-03-12T08:44:26;3.08;;;2.78;;
13580;SDS011;6861;46.170;7.222;2023-03-12T08:46:54;3.00;;;2.70;;
13580;SDS011;6861;46.170;7.222;2023-03-12T08:49:22;3.53;;;2.88;;
13580;SDS011;6861;46.170;7.222;2023-03-12T08:51:50;4.25;;;2.92;;
13580;SDS011;6861;46.170;7.222;2023-03-12T08:54:18;2.92;;;2.70;;
13580;SDS011;6861;46.170;7.222;2023-03-12T08:56:48;3.33;;;2.83;;
13580;SDS011;6861;46.170;7.222;2023-03-12T08:59:19;2.42;;;2.22;;
13580;SDS011;6861;46.170;7.222;2023-03-12T09:01:48;1.98;;;1.80;;
13580;SDS011;6861;46.170;7.222;2023-03-12T09:04:16;2.15;;;1.85;;
13580;SDS011;6861;46.170;7.222;2023-03-12T09:06:45;1.55;;;1.40;;
13580;SDS011;6861;46.170;7.222;2023-03-12T09:09:13;1.58;;;1.30;;
13580;SDS011;6861;46.170;7.222;2023-03-12T09:11:41;2.90;;;1.40;;
13580;SDS011;6861;46.170;7.222;2023-03-12T09:14:09;1.63;;;1.40;;
13580;SDS011;6861;46.170;7.222;2023-03-12T09:16:59;1.80;;;1.50;;
13580;SDS011;6861;46.170;7.222;2023-03-12T09:19:28;2.55;;;1.67;;
13580;SDS011;6861;46.170;7.222;2023-03-12T09:21:56;1.90;;;1.45;;
13580;SDS011;6861;46.170;7.222;2023-03-12T09:24:24;2.30;;;2.10;;
13580;SDS011;6861;46.170;7.222;2023-03-12T09:26:52;2.20;;;2.00;;
13580;SDS011;6861;46.170;7.222;2023-03-12T09:29:20;1.85;;;1.75;;
13580;SDS011;6861;46.170;7.222;2023-03-12T09:31:48;2.67;;;1.90;;
13580;SDS011;6861;46.170;7.222;2023-03-12T09:34:18;1.35;;;0.80;;
13580;SDS011;6861;46.170;7.222;2023-03-12T09:36:46;0.70;;;0.65;;
13580;SDS011;6861;46.170;7.222;2023-03-12T09:39:14;0.80;;;0.70;;
13580;SDS011;6861;46.170;7.222;2023-03-12T09:41:43;0.85;;;0.80;;
13580;SDS011;6861;46.170;7.222;2023-03-12T09:44:15;1.13;;;0.90;;
13580;SDS011;6861;46.170;7.222;2023-03-12T09:46:50;7.70;;;5.78;;
13580;SDS011;6861;46.170;7.222;2023-03-12T09:49:25;1.20;;;1.10;;
13580;SDS011;6861;46.170;7.222;2023-03-12T09:51:58;0.90;;;0.90;;
13580;SDS011;6861;46.170;7.222;2023-03-12T09:54:31;1.67;;;0.70;;
13580;SDS011;6861;46.170;7.222;2023-03-12T09:57:08;1.75;;;0.80;;
13580;SDS011;6861;46.170;7.222;2023-03-12T09:59:39;0.80;;;0.80;;
13580;SDS011;6861;46.170;7.222;2023-03-12T10:02:13;0.88;;;0.70;;
13580;SDS011;6861;46.170;7.222;2023-03-12T10:04:54;0.85;;;0.70;;
13580;SDS011;6861;46.170;7.222;2023-03-12T10:07:27;0.80;;;0.80;;
13580;SDS011;6861;46.170;7.222;2023-03-12T10:10:04;0.77;;;0.77;;
13580;SDS011;6861;46.170;7.222;2023-03-12T10:12:42;1.58;;;0.80;;
13580;SDS011;6861;46.170;7.222;2023-03-12T10:15:22;1.02;;;0.70;;
13580;SDS011;6861;46.170;7.222;2023-03-12T10:18:01;0.98;;;0.55;;
13580;SDS011;6861;46.170;7.222;2023-03-12T10:20:48;1.23;;;0.77;;
13580;SDS011;6861;46.170;7.222;2023-03-12T10:23:29;1.15;;;0.70;;
13580;SDS011;6861;46.170;7.222;2023-03-12T10:26:09;0.52;;;0.50;;
13580;SDS011;6861;46.170;7.222;2023-03-12T10:28:43;0.90;;;0.70;;
13580;SDS011;6861;46.170;7.222;2023-03-12T10:31:15;1.25;;;1.00;;
13580;SDS011;6861;46.170;7.222;2023-03-12T10:33:48;1.33;;;0.60;;
13580;SDS011;6861;46.170;7.222;2023-03-12T10:36:21;1.05;;;0.50;;
13580;SDS011;6861;46.170;7.222;2023-03-12T10:38:54;0.70;;;0.70;;
13580;SDS011;6861;46.170;7.222;2023-03-12T10:41:23;0.75;;;0.50;;
13580;SDS011;6861;46.170;7.222;2023-03-12T10:43:54;0.80;;;0.43;;
13580;SDS011;6861;46.170;7.222;2023-03-12T10:46:29;0.90;;;0.40;;
13580;SDS011;6861;46.170;7.222;2023-03-12T10:49:22;0.50;;;0.40;;
13580;SDS011;6861;46.170;7.222;2023-03-12T10:51:57;0.60;;;0.55;;
13580;SDS011;6861;46.170;7.222;2023-03-12T10:54:28;0.60;;;0.52;;
13580;SDS011;6861;46.170;7.222;2023-03-12T10:56:58;0.52;;;0.50;;
13580;SDS011;6861;46.170;7.222;2023-03-12T10:59:27;1.85;;;0.52;;
13580;SDS011;6861;46.170;7.222;2023-03-12T11:01:57;0.45;;;0.45;;
13580;SDS011;6861;46.170;7.222;2023-03-12T11:04:27;1.00;;;0.40;;
13580;SDS011;6861;46.170;7.222;2023-03-12T11:07:06;1.10;;;0.60;;
13580;SDS011;6861;46.170;7.222;2023-03-12T11:10:02;0.80;;;0.68;;
13580;SDS011;6861;46.170;7.222;2023-03-12T11:12:39;0.60;;;0.50;;
13580;SDS011;6861;46.170;7.222;2023-03-12T11:15:20;0.75;;;0.60;;
13580;SDS011;6861;46.170;7.222;2023-03-12T11:17:50;1.40;;;0.60;;
13580;SDS011;6861;46.170;7.222;2023-03-12T11:20:25;0.73;;;0.50;;
13580;SDS011;6861;46.170;7.222;2023-03-12T11:22:56;0.85;;;0.50;;
13580;SDS011;6861;46.170;7.222;2023-03-12T11:25:25;0.63;;;0.40;;
13580;SDS011;6861;46.170;7.222;2023-03-12T11:27:58;0.43;;;0.30;;
13580;SDS011;6861;46.170;7.222;2023-03-12T11:30:28;0.60;;;0.32;;
13580;SDS011;6861;46.170;7.222;2023-03-12T11:33:03;0.40;;;0.22;;
13580;SDS011;6861;46.170;7.222;2023-03-12T11:35:33;1.02;;;0.40;;
13580;SDS011;6861;46.170;7.222;2023-03-12T11:38:16;0.60;;;0.30;;
13580;SDS011;6861;46.170;7.222;2023-03-12T11:40:49;1.33;;;0.30;;
13580;SDS011;6861;46.170;7.222;2023-03-12T11:43:41;1.30;;;0.35;;
13580;SDS011;6861;46.170;7.222;2023-03-12T11:46:21;0.43;;;0.22;;
13580;SDS011;6861;46.170;7.222;2023-03-12T11:49:02;0.65;;;0.30;;
13580;SDS011;6861;46.170;7.222;2023-03-12T11:51:44;2.42;;;0.40;;
13580;SDS011;6861;46.170;7.222;2023-03-12T11:54:24;0.40;;;0.30;;
13580;SDS011;6861;46.170;7.222;2023-03-12T11:57:12;0.73;;;0.40;;
13580;SDS011;6861;46.170;7.222;2023-03-12T11:59:54;0.47;;;0.20;;
13580;SDS011;6861;46.170;7.222;2023-03-12T12:02:42;0.57;;;0.30;;
13580;SDS011;6861;46.170;7.222;2023-03-12T12:05:30;0.55;;;0.30;;
13580;SDS011;6861;46.170;7.222;2023-03-12T12:08:09;0.43;;;0.30;;
13580;SDS011;6861;46.170;7.222;2023-03-12T12:10:55;1.25;;;0.20;;
13580;SDS011;6861;46.170;7.222;2023-03-12T12:13:31;0.40;;;0.28;;
13580;SDS011;6861;46.170;7.222;2023-03-12T12:16:14;1.63;;;0.20;;
13580;SDS011;6861;46.170;7.222;2023-03-12T12:18:57;0.52;;;0.30;;
13580;SDS011;6861;46.170;7.222;2023-03-12T12:21:36;0.40;;;0.30;;
13580;SDS011;6861;46.170;7.222;2023-03-12T12:24:20;0.57;;;0.35;;
13580;SDS011;6861;46.170;7.222;2023-03-12T12:27:03;0.38;;;0.20;;
13580;SDS011;6861;46.170;7.222;2023-03-12T12:32:41;0.40;;;0.30;;
13580;SDS011;6861;46.170;7.222;2023-03-12T12:35:26;0.50;;;0.30;;
13580;SDS011;6861;46.170;7.222;2023-03-12T12:38:00;0.55;;;0.40;;
13580;SDS011;6861;46.170;7.222;2023-03-12T12:40:34;0.50;;;0.32;;
13580;SDS011;6861;46.170;7.222;2023-03-12T12:43:13;1.25;;;0.50;;
13580;SDS011;6861;46.170;7.222;2023-03-12T12:45:51;0.77;;;0.38;;
13580;SDS011;6861;46.170;7.222;2023-03-12T12:48:22;0.88;;;0.35;;
13580;SDS011;6861;46.170;7.222;2023-03-12T12:50:53;0.60;;;0.30;;
13580;SDS011;6861;46.170;7.222;2023-03-12T12:53:25;0.40;;;0.30;;
13580;SDS011;6861;46.170;7.222;2023-03-12T12:56:01;0.52;;;0.35;;
13580;SDS011;6861;46.170;7.222;2023-03-12T12:58:48;0.40;;;0.30;;
13580;SDS011;6861;46.170;7.222;2023-03-12T13:01:28;1.27;;;0.30;;
13580;SDS011;6861;46.170;7.222;2023-03-12T13:04:00;0.40;;;0.17;;
13580;SDS011;6861;46.170;7.222;2023-03-12T13:09:21;0.47;;;0.30;;
13580;SDS011;6861;46.170;7.222;2023-03-12T13:12:05;0.95;;;0.35;;
13580;SDS011;6861;46.170;7.222;2023-03-12T13:14:48;0.70;;;0.20;;
13580;SDS011;6861;46.170;7.222;2023-03-12T13:17:20;0.88;;;0.40;;
13580;SDS011;6861;46.170;7.222;2023-03-12T13:19:57;0.80;;;0.50;;
13580;SDS011;6861;46.170;7.222;2023-03-12T13:25:35;0.80;;;0.60;;
13580;SDS011;6861;46.170;7.222;2023-03-12T13:28:27;0.50;;;0.30;;
13580;SDS011;6861;46.170;7.222;2023-03-12T13:31:02;1.48;;;0.50;;
13580;SDS011;6861;46.170;7.222;2023-03-12T13:34:25;1.38;;;0.40;;
13580;SDS011;6861;46.170;7.222;2023-03-12T13:40:37;0.70;;;0.30;;
13580;SDS011;6861;46.170;7.222;2023-03-12T13:46:27;0.60;;;0.30;;
13580;SDS011;6861;46.170;7.222;2023-03-12T13:49:15;0.85;;;0.25;;
13580;SDS011;6861;46.170;7.222;2023-03-12T13:54:42;0.55;;;0.35;;
13580;SDS011;6861;46.170;7.222;2023-03-12T13:57:22;1.35;;;0.45;;
13580;SDS011;6861;46.170;7.222;2023-03-12T13:59:55;0.60;;;0.30;;
13580;SDS011;6861;46.170;7.222;2023-03-12T14:02:27;1.00;;;0.50;;
13580;SDS011;6861;46.170;7.222;2023-03-12T14:05:02;1.08;;;0.40;;
13580;SDS011;6861;46.170;7.222;2023-03-12T14:10:31;0.57;;;0.40;;
13580;SDS011;6861;46.170;7.222;2023-03-12T14:13:08;0.98;;;0.47;;
13580;SDS011;6861;46.170;7.222;2023-03-12T14:15:46;1.42;;;0.50;;
13580;SDS011;6861;46.170;7.222;2023-03-12T14:18:22;0.50;;;0.20;;
13580;SDS011;6861;46.170;7.222;2023-03-12T14:20:53;0.45;;;0.38;;
13580;SDS011;6861;46.170;7.222;2023-03-12T14:23:26;1.58;;;0.50;;
13580;SDS011;6861;46.170;7.222;2023-03-12T14:25:58;0.77;;;0.40;;
13580;SDS011;6861;46.170;7.222;2023-03-12T14:28:29;0.75;;;0.50;;
13580;SDS011;6861;46.170;7.222;2023-03-12T14:31:05;1.73;;;0.57;;
13580;SDS011;6861;46.170;7.222;2023-03-12T14:33:40;1.23;;;0.43;;
13580;SDS011;6861;46.170;7.222;2023-03-12T14:36:17;0.70;;;0.45;;
13580;SDS011;6861;46.170;7.222;2023-03-12T14:38:47;1.10;;;0.60;;
13580;SDS011;6861;46.170;7.222;2023-03-12T14:41:17;0.43;;;0.40;;
13580;SDS011;6861;46.170;7.222;2023-03-12T14:43:50;0.75;;;0.43;;
13580;SDS011;6861;46.170;7.222;2023-03-12T14:46:21;0.68;;;0.32;;
13580;SDS011;6861;46.170;7.222;2023-03-12T14:48:54;2.20;;;0.50;;
13580;SDS011;6861;46.170;7.222;2023-03-12T14:51:24;1.23;;;0.40;;
13580;SDS011;6861;46.170;7.222;2023-03-12T14:54:02;1.85;;;0.30;;
13580;SDS011;6861;46.170;7.222;2023-03-12T14:56:33;0.88;;;0.40;;
13580;SDS011;6861;46.170;7.222;2023-03-12T14:59:20;1.10;;;0.60;;
13580;SDS011;6861;46.170;7.222;2023-03-12T15:01:59;1.10;;;0.60;;
13580;SDS011;6861;46.170;7.222;2023-03-12T15:04:35;1.10;;;0.50;;
13580;SDS011;6861;46.170;7.222;2023-03-12T15:07:06;1.05;;;0.43;;
13580;SDS011;6861;46.170;7.222;2023-03-12T15:09:39;0.70;;;0.30;;
13580;SDS011;6861;46.170;7.222;2023-03-12T15:12:16;1.40;;;0.50;;
13580;SDS011;6861;46.170;7.222;2023-03-12T15:14:48;1.98;;;0.70;;
13580;SDS011;6861;46.170;7.222;2023-03-12T15:17:20;0.93;;;0.35;;
13580;SDS011;6861;46.170;7.222;2023-03-12T15:19:54;0.52;;;0.35;;
13580;SDS011;6861;46.170;7.222;2023-03-12T15:22:24;1.13;;;0.40;;
13580;SDS011;6861;46.170;7.222;2023-03-12T15:24:54;1.17;;;0.40;;
13580;SDS011;6861;46.170;7.222;2023-03-12T15:27:30;2.67;;;0.55;;
13580;SDS011;6861;46.170;7.222;2023-03-12T15:30:21;1.52;;;0.45;;
13580;SDS011;6861;46.170;7.222;2023-03-12T15:33:02;0.90;;;0.60;;
13580;SDS011;6861;46.170;7.222;2023-03-12T15:35:36;0.82;;;0.50;;
13580;SDS011;6861;46.170;7.222;2023-03-12T15:38:12;0.90;;;0.55;;
13580;SDS011;6861;46.170;7.222;2023-03-12T15:40:46;1.33;;;0.70;;
13580;SDS011;6861;46.170;7.222;2023-03-12T15:43:17;1.38;;;0.70;;
13580;SDS011;6861;46.170;7.222;2023-03-12T15:45:47;2.42;;;0.57;;
13580;SDS011;6861;46.170;7.222;2023-03-12T15:48:24;1.83;;;0.55;;